createdAt,value
2023-02-14T00:00:55.667Z,19.38
2023-02-14T00:03:22.359Z,19.63
2023-02-14T00:05:49.470Z,19.08
2023-02-14T00:08:16.351Z,19.85
2023-02-14T00:10:42.912Z,20.23
2023-02-14T00:13:09.598Z,20.15
2023-02-14T00:15:36.178Z,22.88
2023-02-14T00:18:03.484Z,21.33
2023-02-14T00:20:30.193Z,22.45
2023-02-14T00:22:56.926Z,21.88
2023-02-14T00:25:23.722Z,20.98
2023-02-14T00:27:50.440Z,21.15
2023-02-14T00:30:17.280Z,21.33
2023-02-14T00:32:43.923Z,23.17
2023-02-14T00:35:11.004Z,22.42
2023-02-14T00:37:37.737Z,20.77
2023-02-14T00:40:05.360Z,21.63
2023-02-14T00:42:31.951Z,21.52
2023-02-14T00:44:58.545Z,21.17
2023-02-14T00:47:25.306Z,21.50
2023-02-14T00:49:52.124Z,24.00
2023-02-14T00:52:18.838Z,21.60
2023-02-14T00:54:45.828Z,22.88
2023-02-14T00:57:12.455Z,21.80
2023-02-14T00:59:39.111Z,23.17
2023-02-14T01:02:05.800Z,24.67
2023-02-14T01:04:32.492Z,23.00
2023-02-14T01:06:59.138Z,22.25
2023-02-14T01:09:25.740Z,23.02
2023-02-14T01:11:52.367Z,23.08
2023-02-14T01:14:18.985Z,22.52
2023-02-14T01:16:45.695Z,22.77
2023-02-14T01:19:12.306Z,23.63
2023-02-14T01:21:38.956Z,22.40
2023-02-14T01:24:07.640Z,23.25
2023-02-14T01:26:34.943Z,23.35
2023-02-14T01:29:01.938Z,25.92
2023-02-14T01:31:31.052Z,24.98
2023-02-14T01:33:58.892Z,24.70
2023-02-14T01:36:26.922Z,23.63
2023-02-14T01:38:56.188Z,24.90
2023-02-14T01:41:24.172Z,26.48
2023-02-14T01:43:59.839Z,25.08
2023-02-14T01:46:29.455Z,27.15
2023-02-14T01:49:01.798Z,24.02
2023-02-14T01:51:29.674Z,22.92
2023-02-14T01:53:57.580Z,24.58
2023-02-14T01:56:29.195Z,23.20
2023-02-14T01:59:00.152Z,24.83
2023-02-14T02:01:28.092Z,24.45
2023-02-14T02:03:57.361Z,25.40
2023-02-14T02:06:33.550Z,25.20
2023-02-14T02:09:22.972Z,23.63
2023-02-14T02:11:49.896Z,22.17
2023-02-14T02:14:19.068Z,23.02
2023-02-14T02:17:03.588Z,23.75
2023-02-14T02:19:54.851Z,24.05
2023-02-14T02:22:37.557Z,25.35
2023-02-14T02:25:41.567Z,26.30
2023-02-14T02:29:02.296Z,22.15
2023-02-14T02:31:49.134Z,23.65
2023-02-14T02:34:37.548Z,24.27
2023-02-14T02:37:39.585Z,24.08
2023-02-14T02:40:24.078Z,22.48
2023-02-14T02:43:21.927Z,22.10
2023-02-14T02:46:23.659Z,23.98
2023-02-14T02:48:56.344Z,22.60
2023-02-14T02:51:56.393Z,23.20
2023-02-14T02:54:49.050Z,22.65
2023-02-14T02:57:22.543Z,21.48
2023-02-14T02:59:51.946Z,23.17
2023-02-14T03:02:23.487Z,23.38
2023-02-14T03:04:55.196Z,25.45
2023-02-14T03:07:40.326Z,25.45
2023-02-14T03:10:13.813Z,24.27
2023-02-14T03:13:09.045Z,25.17
2023-02-14T03:16:03.564Z,24.27
2023-02-14T03:19:13.577Z,23.75
2023-02-14T03:22:08.315Z,21.55
2023-02-14T03:24:57.344Z,23.63
2023-02-14T03:27:45.394Z,23.10
2023-02-14T03:30:28.068Z,20.55
2023-02-14T03:33:00.178Z,19.45
2023-02-14T03:35:36.417Z,20.85
2023-02-14T03:38:22.003Z,20.55
2023-02-14T03:40:58.152Z,21.33
2023-02-14T03:43:34.732Z,19.98
2023-02-14T03:46:07.024Z,22.23
2023-02-14T03:48:35.704Z,19.30
2023-02-14T03:51:04.491Z,21.75
2023-02-14T03:53:35.117Z,25.10
2023-02-14T03:56:29.235Z,22.92
2023-02-14T03:59:00.967Z,21.80
2023-02-14T04:01:36.001Z,22.35
2023-02-14T04:04:05.577Z,24.17
2023-02-14T04:06:32.229Z,26.65
2023-02-14T04:08:59.079Z,25.52
2023-02-14T04:11:25.816Z,26.50
2023-02-14T04:13:52.390Z,25.15
2023-02-14T04:16:19.278Z,27.25
2023-02-14T04:19:04.400Z,25.25
2023-02-14T04:21:31.052Z,25.48
2023-02-14T04:23:57.749Z,26.67
2023-02-14T04:26:24.331Z,24.33
2023-02-14T04:28:51.057Z,24.40
2023-02-14T04:31:17.905Z,24.05
2023-02-14T04:33:46.052Z,22.88
2023-02-14T04:36:12.675Z,23.05
2023-02-14T04:38:39.426Z,21.27
2023-02-14T04:41:06.273Z,24.20
2023-02-14T04:43:32.882Z,21.05
2023-02-14T04:45:59.559Z,21.65
2023-02-14T04:48:26.162Z,20.15
2023-02-14T04:50:56.639Z,21.98
2023-02-14T04:53:23.277Z,23.48
2023-02-14T04:55:50.492Z,26.48
2023-02-14T04:58:17.670Z,25.05
2023-02-14T05:00:44.638Z,23.88
2023-02-14T05:03:11.343Z,24.90
2023-02-14T05:05:37.952Z,24.42
2023-02-14T05:08:04.605Z,29.27
2023-02-14T05:10:31.234Z,33.55
2023-02-14T05:12:57.883Z,38.70
2023-02-14T05:15:24.532Z,35.05
2023-02-14T05:17:51.105Z,35.65
2023-02-14T05:20:17.844Z,39.70
2023-02-14T05:22:44.443Z,50.03
2023-02-14T05:25:11.179Z,38.78
2023-02-14T05:27:37.820Z,34.15
2023-02-14T05:30:04.806Z,38.80
2023-02-14T05:32:31.514Z,37.65
2023-02-14T05:35:00.140Z,38.92
2023-02-14T05:37:27.601Z,38.03
2023-02-14T05:39:54.241Z,36.70
2023-02-14T05:42:20.885Z,37.95
2023-02-14T05:44:48.725Z,37.95
2023-02-14T05:47:15.385Z,37.08
2023-02-14T05:49:42.035Z,35.17
2023-02-14T05:52:08.626Z,35.38
2023-02-14T05:54:35.447Z,35.42
2023-02-14T05:57:02.065Z,35.65
2023-02-14T05:59:28.735Z,33.33
2023-02-14T06:01:55.378Z,33.97
2023-02-14T06:04:22.072Z,34.33
2023-02-14T06:06:48.831Z,32.92
2023-02-14T06:09:15.490Z,31.17
2023-02-14T06:11:42.127Z,33.97
2023-02-14T06:14:08.777Z,34.20
2023-02-14T06:16:35.563Z,32.22
2023-02-14T06:19:02.208Z,33.97
2023-02-14T06:21:28.876Z,33.85
2023-02-14T06:23:55.598Z,34.05
2023-02-14T06:26:22.262Z,36.63
2023-02-14T06:28:53.530Z,35.65
2023-02-14T06:31:20.325Z,36.10
2023-02-14T06:33:47.043Z,35.00
2023-02-14T06:36:13.726Z,40.22
2023-02-14T06:38:41.216Z,41.67
2023-02-14T06:41:09.675Z,36.97
2023-02-14T06:43:36.274Z,42.00
2023-02-14T06:46:03.838Z,41.45
2023-02-14T06:48:30.588Z,40.30
2023-02-14T06:50:57.524Z,37.28
2023-02-14T06:53:24.513Z,45.95
2023-02-14T06:55:51.128Z,46.30
2023-02-14T06:58:17.758Z,44.17
2023-02-14T07:00:44.532Z,33.58
2023-02-14T07:03:11.270Z,44.65
2023-02-14T07:05:38.012Z,37.33
2023-02-14T07:08:07.110Z,46.70
2023-02-14T07:10:34.609Z,37.08
2023-02-14T07:13:01.438Z,50.58
2023-02-14T07:15:28.277Z,50.42
2023-02-14T07:17:55.035Z,42.92
2023-02-14T07:20:21.882Z,40.17
2023-02-14T07:22:48.486Z,37.50
2023-02-14T07:25:15.198Z,51.75
2023-02-14T07:27:42.254Z,48.45
2023-02-14T07:30:11.074Z,51.17
2023-02-14T07:32:38.766Z,30.30
2023-02-14T07:35:06.087Z,71.43
2023-02-14T07:37:34.220Z,75.95
2023-02-14T07:40:01.499Z,74.07
2023-02-14T07:42:28.242Z,54.80
2023-02-14T07:44:55.007Z,59.13
2023-02-14T07:47:21.797Z,42.80
2023-02-14T07:49:48.438Z,36.67
2023-02-14T07:52:15.049Z,47.63
2023-02-14T07:54:41.832Z,42.00
2023-02-14T07:57:08.672Z,62.42
2023-02-14T07:59:35.302Z,64.97
2023-02-14T08:02:01.980Z,81.03
2023-02-14T08:04:28.744Z,34.95
2023-02-14T08:06:55.381Z,34.45
2023-02-14T08:09:24.962Z,35.83
2023-02-14T08:12:11.883Z,52.70
2023-02-14T08:14:38.589Z,46.22
2023-02-14T08:17:07.222Z,66.90
2023-02-14T08:19:34.119Z,53.85
2023-02-14T08:22:00.690Z,56.60
2023-02-14T08:24:27.592Z,56.08
2023-02-14T08:26:54.362Z,45.47
2023-02-14T08:29:21.385Z,51.20
2023-02-14T08:31:48.777Z,51.72
2023-02-14T08:34:16.614Z,57.42
2023-02-14T08:36:43.476Z,44.92
2023-02-14T08:39:10.703Z,38.10
2023-02-14T08:41:37.603Z,39.40
2023-02-14T08:44:04.559Z,30.63
2023-02-14T08:46:31.308Z,34.25
2023-02-14T08:48:58.010Z,41.42
2023-02-14T08:51:25.848Z,48.20
2023-02-14T08:53:53.149Z,31.17
2023-02-14T08:56:21.355Z,44.00
2023-02-14T08:58:48.052Z,52.15
2023-02-14T09:01:17.328Z,40.00
2023-02-14T09:03:44.683Z,33.95
2023-02-14T09:06:17.394Z,41.33
2023-02-14T09:08:45.092Z,38.67
2023-02-14T09:11:18.753Z,39.20
2023-02-14T09:13:46.435Z,36.10
2023-02-14T09:16:14.517Z,40.28
2023-02-14T09:18:41.183Z,35.67
2023-02-14T09:21:10.011Z,32.47
2023-02-14T09:23:37.104Z,31.25
2023-02-14T09:26:06.171Z,41.30
2023-02-14T09:28:32.866Z,37.13
2023-02-14T09:31:07.624Z,46.58
2023-02-14T09:33:34.263Z,33.13
2023-02-14T09:36:12.831Z,36.97
2023-02-14T09:38:39.881Z,33.35
2023-02-14T09:41:16.003Z,33.03
2023-02-14T09:43:55.671Z,34.97
2023-02-14T09:48:51.469Z,29.05
2023-02-14T09:51:20.525Z,26.40
2023-02-14T09:53:52.353Z,27.70
2023-02-14T09:56:50.354Z,26.88
2023-02-14T09:59:29.205Z,26.00
2023-02-14T10:02:05.191Z,29.17
2023-02-14T10:04:40.564Z,28.77
2023-02-14T10:07:33.755Z,28.35
2023-02-14T10:10:16.328Z,28.35
2023-02-14T10:12:52.829Z,35.95
2023-02-14T10:15:24.614Z,31.63
2023-02-14T10:18:03.204Z,28.13
2023-02-14T10:20:36.085Z,32.00
2023-02-14T10:23:27.415Z,26.90
2023-02-14T10:26:00.603Z,25.23
2023-02-14T10:28:37.175Z,30.30
2023-02-14T10:31:24.512Z,30.10
2023-02-14T10:34:22.291Z,29.60
2023-02-14T10:37:04.681Z,27.13
2023-02-14T10:39:46.682Z,28.05
2023-02-14T10:42:38.091Z,26.65
2023-02-14T10:45:34.355Z,24.63
2023-02-14T10:48:14.041Z,27.38
2023-02-14T10:50:59.172Z,31.55
2023-02-14T10:53:48.398Z,29.13
2023-02-14T10:56:29.134Z,25.58
2023-02-14T10:58:57.657Z,30.95
2023-02-14T11:01:24.882Z,28.10
2023-02-14T11:04:06.568Z,26.92
2023-02-14T11:06:33.933Z,27.55
2023-02-14T11:09:00.709Z,28.73
2023-02-14T11:11:37.483Z,30.75
2023-02-14T11:16:52.011Z,30.02
2023-02-14T11:19:20.630Z,30.73
2023-02-14T11:21:50.680Z,34.72
2023-02-14T11:24:28.481Z,33.30
2023-02-14T11:27:22.942Z,35.13
2023-02-14T11:29:52.968Z,33.50
2023-02-14T11:32:28.592Z,36.53
2023-02-14T11:35:05.710Z,36.38
2023-02-14T11:37:39.705Z,33.92
2023-02-14T11:40:07.104Z,36.40
2023-02-14T11:42:45.506Z,34.53
2023-02-14T11:45:27.431Z,36.70
2023-02-14T11:48:12.956Z,35.17
2023-02-14T11:50:42.031Z,36.70
2023-02-14T11:53:12.951Z,33.80
2023-02-14T11:55:41.255Z,33.05
2023-02-14T11:58:09.453Z,32.85
2023-02-14T12:00:37.524Z,34.72
2023-02-14T12:03:06.311Z,33.72
2023-02-14T12:05:45.813Z,32.57
2023-02-14T12:08:13.186Z,34.58
2023-02-14T12:10:42.090Z,37.05
2023-02-14T12:13:08.642Z,35.17
2023-02-14T12:15:44.385Z,39.28
2023-02-14T12:18:13.859Z,38.00
2023-02-14T12:21:09.416Z,38.85
2023-02-14T12:23:51.621Z,38.10
2023-02-14T12:26:49.331Z,38.35
2023-02-14T12:29:44.472Z,38.40
2023-02-14T12:32:25.345Z,38.67
2023-02-14T12:35:22.208Z,38.97
2023-02-14T12:38:05.002Z,37.90
2023-02-14T12:40:40.644Z,38.28
2023-02-14T12:43:45.088Z,39.50
2023-02-14T12:46:23.544Z,41.78
2023-02-14T12:49:08.262Z,40.20
2023-02-14T12:51:53.417Z,41.15
2023-02-14T12:54:53.859Z,40.55
2023-02-14T12:57:47.073Z,40.88
2023-02-14T13:00:37.025Z,39.60
2023-02-14T13:03:21.512Z,39.70
2023-02-14T13:06:09.664Z,39.28
2023-02-14T13:09:12.843Z,38.45
2023-02-14T13:12:02.389Z,38.80
2023-02-14T13:14:53.664Z,37.83
2023-02-14T13:17:49.127Z,38.53
2023-02-14T13:20:26.193Z,36.88
2023-02-14T13:22:55.749Z,39.10
2023-02-14T13:25:33.616Z,39.72
2023-02-14T13:28:07.726Z,39.22
2023-02-14T13:30:42.134Z,35.83
2023-02-14T13:33:24.036Z,41.63
2023-02-14T13:35:52.722Z,41.60
2023-02-14T13:38:20.388Z,43.00
2023-02-14T13:40:48.095Z,39.80
2023-02-14T13:43:46.907Z,40.25
2023-02-14T13:46:15.813Z,41.47
2023-02-14T13:48:43.200Z,39.22
2023-02-14T13:51:10.754Z,36.45
2023-02-14T13:53:41.570Z,39.83
2023-02-14T13:56:15.384Z,39.78
2023-02-14T13:58:59.807Z,41.65
2023-02-14T14:01:35.925Z,42.20
2023-02-14T14:04:07.475Z,39.53
2023-02-14T14:07:16.192Z,40.80
2023-02-14T14:09:42.922Z,36.87
2023-02-14T14:12:27.732Z,38.63
2023-02-14T14:15:06.809Z,38.42
2023-02-14T14:17:38.109Z,37.55
2023-02-14T14:20:27.601Z,36.75
2023-02-14T14:23:00.016Z,35.17
2023-02-14T14:25:41.544Z,35.17
2023-02-14T14:28:28.847Z,35.20
2023-02-14T14:30:55.930Z,37.28
2023-02-14T14:33:40.802Z,36.75
2023-02-14T14:36:11.181Z,38.08
2023-02-14T14:38:50.642Z,37.90
2023-02-14T14:41:17.854Z,39.33
2023-02-14T14:43:44.548Z,40.42
2023-02-14T14:46:13.909Z,38.30
2023-02-14T14:48:49.144Z,37.83
2023-02-14T14:51:24.286Z,36.95
2023-02-14T14:53:55.246Z,38.67
2023-02-14T14:56:25.809Z,38.60
2023-02-14T14:58:53.533Z,38.42
2023-02-14T15:01:39.916Z,39.10
2023-02-14T15:04:25.267Z,39.25
2023-02-14T15:06:52.398Z,39.22
2023-02-14T15:09:32.423Z,40.85
2023-02-14T15:12:20.435Z,39.63
2023-02-14T15:14:54.367Z,38.92
2023-02-14T15:17:25.612Z,42.72
2023-02-14T15:19:56.556Z,36.40
2023-02-14T15:22:44.299Z,40.03
2023-02-14T15:25:17.037Z,36.08
2023-02-14T15:27:43.818Z,39.75
2023-02-14T15:30:19.622Z,37.30
2023-02-14T15:32:50.108Z,37.42
2023-02-14T15:35:22.754Z,36.88
2023-02-14T15:37:51.118Z,35.78
2023-02-14T15:40:22.675Z,36.45
2023-02-14T15:42:56.083Z,36.78
2023-02-14T15:45:30.702Z,36.60
2023-02-14T15:47:59.481Z,39.30
2023-02-14T15:50:31.297Z,37.43
2023-02-14T15:53:23.809Z,36.33
2023-02-14T15:55:51.284Z,35.60
2023-02-14T15:58:25.356Z,38.38
2023-02-14T16:00:53.408Z,39.17
2023-02-14T16:03:25.697Z,38.78
2023-02-14T16:05:54.712Z,41.15
2023-02-14T16:08:34.782Z,43.95
2023-02-14T16:11:14.506Z,48.42
2023-02-14T16:16:14.359Z,39.40
2023-02-14T16:18:43.328Z,53.53
2023-02-14T16:21:23.695Z,44.30
2023-02-14T16:24:12.154Z,40.75
2023-02-14T16:26:41.752Z,39.88
2023-02-14T16:29:14.726Z,40.70
2023-02-14T16:32:14.547Z,47.30
2023-02-14T16:34:40.993Z,38.45
2023-02-14T16:37:23.736Z,39.20
2023-02-14T16:39:52.893Z,39.92
2023-02-14T16:42:20.480Z,34.88
2023-02-14T16:44:48.622Z,34.83
2023-02-14T16:47:17.225Z,41.35
2023-02-14T16:49:43.968Z,33.50
2023-02-14T16:52:20.274Z,32.10
2023-02-14T16:54:47.889Z,31.40
2023-02-14T16:57:30.702Z,30.85
2023-02-14T16:59:57.495Z,29.65
2023-02-14T17:02:28.203Z,31.27
2023-02-14T17:04:55.006Z,32.22
2023-02-14T17:07:21.951Z,28.48
2023-02-14T17:09:53.318Z,29.52
2023-02-14T17:12:24.134Z,29.85
2023-02-14T17:14:54.660Z,32.00
2023-02-14T17:17:21.315Z,29.00
2023-02-14T17:19:48.055Z,30.85
2023-02-14T17:22:14.999Z,26.95
2023-02-14T17:24:41.703Z,28.67
2023-02-14T17:27:08.564Z,26.92
2023-02-14T17:29:35.202Z,25.50
2023-02-14T17:32:02.084Z,28.95
2023-02-14T17:34:34.693Z,27.75
2023-02-14T17:37:02.831Z,27.23
2023-02-14T17:39:29.509Z,28.15
2023-02-14T17:41:56.800Z,26.58
2023-02-14T17:44:23.661Z,28.40
2023-02-14T17:46:50.323Z,27.70
2023-02-14T17:49:16.984Z,25.83
2023-02-14T17:51:43.574Z,27.27
2023-02-14T17:54:10.199Z,28.48
2023-02-14T17:56:36.852Z,33.45
2023-02-14T17:59:03.771Z,28.17
2023-02-14T18:01:34.572Z,25.90
2023-02-14T18:04:02.459Z,24.20
2023-02-14T18:06:29.115Z,24.35
2023-02-14T18:08:58.748Z,25.92
2023-02-14T18:11:27.765Z,27.48
2023-02-14T18:13:55.917Z,25.13
2023-02-14T18:16:24.826Z,28.70
2023-02-14T18:18:52.224Z,26.73
2023-02-14T18:21:21.792Z,26.05
2023-02-14T18:23:48.683Z,28.23
2023-02-14T18:26:18.146Z,28.35
2023-02-14T18:28:45.234Z,28.88
2023-02-14T18:31:17.999Z,31.25
2023-02-14T18:33:45.950Z,28.88
2023-02-14T18:36:16.831Z,28.88
2023-02-14T18:38:45.196Z,30.15
2023-02-14T18:41:15.027Z,28.55
2023-02-14T18:43:42.649Z,32.72
2023-02-14T18:46:12.196Z,35.33
2023-02-14T18:48:39.268Z,36.13
2023-02-14T18:51:06.407Z,32.75
2023-02-14T18:53:33.141Z,38.58
2023-02-14T18:56:02.676Z,32.08
2023-02-14T18:58:29.395Z,33.85
2023-02-14T19:00:56.499Z,32.90
2023-02-14T19:03:23.102Z,30.60
2023-02-14T19:05:49.807Z,32.65
2023-02-14T19:08:16.392Z,32.58
2023-02-14T19:10:43.002Z,32.78
2023-02-14T19:13:09.577Z,35.58
2023-02-14T19:15:36.152Z,34.28
2023-02-14T19:18:02.821Z,41.05
2023-02-14T19:20:29.443Z,38.55
2023-02-14T19:22:56.016Z,35.95
2023-02-14T19:25:22.726Z,38.60
2023-02-14T19:27:49.443Z,39.53
2023-02-14T19:30:16.309Z,36.67
2023-02-14T19:32:42.950Z,35.50
2023-02-14T19:35:09.600Z,36.35
2023-02-14T19:37:36.266Z,37.33
2023-02-14T19:40:02.945Z,32.78
2023-02-14T19:42:29.547Z,34.55
2023-02-14T19:44:56.168Z,35.63
2023-02-14T19:47:33.857Z,32.72
2023-02-14T19:50:10.161Z,34.83
2023-02-14T19:52:36.840Z,34.22
2023-02-14T19:55:03.910Z,36.28
2023-02-14T19:57:30.494Z,37.75
2023-02-14T19:59:57.276Z,37.45
2023-02-14T20:02:24.614Z,45.58
2023-02-14T20:04:52.954Z,46.92
2023-02-14T20:07:19.523Z,44.03
2023-02-14T20:09:46.217Z,42.67
2023-02-14T20:12:13.556Z,40.03
2023-02-14T20:14:50.818Z,39.05
2023-02-14T20:17:18.112Z,39.58
2023-02-14T20:19:44.836Z,39.33
2023-02-14T20:22:11.432Z,37.50
2023-02-14T20:24:38.150Z,37.05
2023-02-14T20:27:04.916Z,32.83
2023-02-14T20:29:31.925Z,32.25
2023-02-14T20:31:59.927Z,33.97
2023-02-14T20:34:28.186Z,33.40
2023-02-14T20:36:55.817Z,38.30
2023-02-14T20:39:27.342Z,33.60
2023-02-14T20:41:54.139Z,39.05
2023-02-14T20:44:21.400Z,36.65
2023-02-14T20:46:50.232Z,37.72
2023-02-14T20:49:17.384Z,34.60
2023-02-14T20:51:46.014Z,37.92
2023-02-14T20:54:13.172Z,37.08
2023-02-14T20:56:40.219Z,35.65
2023-02-14T20:59:09.276Z,36.70
2023-02-14T21:01:36.279Z,39.60
2023-02-14T21:04:03.450Z,38.28
2023-02-14T21:06:32.694Z,38.90
2023-02-14T21:09:00.297Z,37.85
2023-02-14T21:11:27.997Z,41.88
2023-02-14T21:13:59.242Z,38.17
2023-02-14T21:16:27.387Z,44.92
2023-02-14T21:18:58.870Z,38.42
2023-02-14T21:21:34.598Z,44.50
2023-02-14T21:24:04.418Z,45.85
2023-02-14T21:26:31.206Z,37.92
2023-02-14T21:28:58.313Z,39.10
2023-02-14T21:31:25.672Z,37.17
2023-02-14T21:33:54.754Z,38.03
2023-02-14T21:36:23.231Z,44.63
2023-02-14T21:38:50.725Z,45.05
2023-02-14T21:41:22.154Z,47.35
2023-02-14T21:43:52.422Z,60.90
2023-02-14T21:46:27.100Z,60.17
2023-02-14T21:49:13.693Z,57.97
2023-02-14T21:51:41.068Z,42.42
2023-02-14T21:54:08.532Z,56.67
2023-02-14T21:56:36.706Z,62.50
2023-02-14T21:59:03.411Z,58.40
2023-02-14T22:01:35.319Z,53.63
2023-02-14T22:04:02.853Z,40.30
2023-02-14T22:06:29.471Z,44.33
2023-02-14T22:09:00.637Z,40.38
2023-02-14T22:11:28.715Z,37.40
2023-02-14T22:13:56.395Z,35.80
2023-02-14T22:16:24.840Z,38.50
2023-02-14T22:18:52.087Z,34.88
2023-02-14T22:21:22.332Z,36.00
2023-02-14T22:23:49.332Z,37.97
2023-02-14T22:26:25.575Z,47.88
2023-02-14T22:28:56.689Z,55.83
2023-02-14T22:31:25.359Z,55.75
2023-02-14T22:33:52.392Z,51.63
2023-02-14T22:36:19.148Z,63.20
2023-02-14T22:38:45.820Z,58.47
2023-02-14T22:41:18.527Z,55.85
2023-02-14T22:43:45.739Z,36.50
2023-02-14T22:46:14.955Z,39.90
2023-02-14T22:48:41.874Z,38.97
2023-02-14T22:51:25.156Z,37.22
2023-02-14T22:53:54.333Z,36.83
2023-02-14T22:56:22.895Z,50.85
2023-02-14T22:58:56.487Z,56.38
2023-02-14T23:01:24.392Z,48.85
2023-02-14T23:03:55.569Z,47.70
2023-02-14T23:06:23.550Z,39.00
2023-02-14T23:08:50.655Z,35.95
2023-02-14T23:11:20.818Z,44.92
2023-02-14T23:14:06.522Z,49.08
2023-02-14T23:16:51.904Z,31.25
2023-02-14T23:19:39.487Z,30.90
2023-02-14T23:22:10.490Z,30.45
2023-02-14T23:24:37.897Z,33.05
2023-02-14T23:27:05.598Z,40.13
2023-02-14T23:29:32.608Z,27.73
2023-02-14T23:31:59.522Z,64.10
2023-02-14T23:34:27.760Z,28.00
2023-02-14T23:36:54.510Z,41.30
2023-02-14T23:39:21.374Z,47.25
2023-02-14T23:41:48.076Z,38.80
2023-02-14T23:44:16.649Z,28.40
2023-02-14T23:46:43.814Z,33.10
2023-02-14T23:49:10.879Z,35.70
2023-02-14T23:51:37.670Z,31.48
2023-02-14T23:54:04.653Z,29.02
2023-02-14T23:56:31.295Z,32.35
2023-02-14T23:58:57.896Z,30.50
